KAXN

Alexandria Municipal Airport/Chandler Field

Airport
ICAO code
KAXN
IATA Code
AXN
Summary
ICAO Region
NAM
ICAO Territory
Location

Alexandria, Douglas County, Minnesota

Serving
Alexandria
Elevation
1425 ft
Coordinates
45° 51' 55" N , 95° 23' 40" W
KCC
Airport CFIT
Altimeter Temperature Error Correction
Airport GND
Aircraft Ground De/Anti Icing
Airport RE
Landing on Contaminated Runways
Metar
KAXN 251853Z AUTO 14011G20KT 10SM CLR 26/17 A3018 RMK AO2 SLP215 T02560172

Description

Alexandria Municipal Airport, also known as Chandler Field, is a city-owned public-use airport located 2 nm southwest of the central business district of Alexandria, a city in Douglas County, Minnesota.

Climatology

Humid Continental climate (Köppen climate classification Dfb) - Variable weather patterns and a large seasonal temperature variance. Summers are often warm and humid with frequent thunderstorms and winters can be very cold with frequent snowfall and persistent snow cover.

Airport map

Aerial View

SKYbrary Partners:

Safety knowledge contributed by: